createdAt,value
2023-02-09T00:01:37.084Z,10.48
2023-02-09T00:04:03.893Z,6.55
2023-02-09T00:06:30.421Z,8.45
2023-02-09T00:08:58.327Z,7.75
2023-02-09T00:11:48.408Z,7.95
2023-02-09T00:14:17.926Z,11.68
2023-02-09T00:16:45.823Z,8.47
2023-02-09T00:19:13.078Z,7.80
2023-02-09T00:21:40.862Z,12.27
2023-02-09T00:24:08.053Z,7.30
2023-02-09T00:26:34.463Z,13.63
2023-02-09T00:29:00.890Z,12.25
2023-02-09T00:31:27.397Z,8.38
2023-02-09T00:33:53.868Z,8.65
2023-02-09T00:36:20.309Z,7.75
2023-02-09T00:38:47.090Z,10.15
2023-02-09T00:41:14.374Z,8.02
2023-02-09T00:43:40.807Z,6.72
2023-02-09T00:46:07.747Z,8.52
2023-02-09T00:48:34.416Z,8.57
2023-02-09T00:51:01.134Z,10.40
2023-02-09T00:53:27.878Z,8.93
2023-02-09T00:55:54.310Z,7.95
2023-02-09T00:58:20.748Z,11.38
2023-02-09T01:00:49.178Z,9.55
2023-02-09T01:03:15.726Z,8.75
2023-02-09T01:05:42.963Z,11.50
2023-02-09T01:08:09.893Z,9.05
2023-02-09T01:10:38.025Z,12.73
2023-02-09T01:13:04.584Z,10.13
2023-02-09T01:15:31.044Z,11.18
2023-02-09T01:17:58.609Z,8.77
2023-02-09T01:20:25.017Z,8.80
2023-02-09T01:22:51.513Z,9.57
2023-02-09T01:25:17.957Z,12.45
2023-02-09T01:27:44.338Z,8.52
2023-02-09T01:30:11.590Z,9.25
2023-02-09T01:32:37.986Z,8.13
2023-02-09T01:35:04.909Z,9.70
2023-02-09T01:37:34.082Z,11.38
2023-02-09T01:40:00.524Z,11.65
2023-02-09T01:42:27.629Z,13.07
2023-02-09T01:45:00.075Z,11.35
2023-02-09T01:47:26.564Z,12.52
2023-02-09T01:49:53.356Z,11.15
2023-02-09T01:52:25.443Z,8.25
2023-02-09T01:54:57.227Z,10.23
2023-02-09T01:57:27.792Z,10.15
2023-02-09T01:59:58.284Z,11.80
2023-02-09T02:02:25.326Z,12.98
2023-02-09T02:04:52.663Z,12.00
2023-02-09T02:07:32.836Z,13.57
2023-02-09T02:10:01.049Z,12.88
2023-02-09T02:12:27.567Z,8.27
2023-02-09T02:14:54.004Z,14.55
2023-02-09T02:17:40.038Z,12.63
2023-02-09T02:20:27.939Z,10.20
2023-02-09T02:23:05.220Z,9.45
2023-02-09T02:25:55.767Z,10.70
2023-02-09T02:28:31.709Z,12.57
2023-02-09T02:31:28.344Z,10.75
2023-02-09T02:34:18.303Z,11.98
2023-02-09T02:37:15.634Z,8.73
2023-02-09T02:39:51.350Z,9.68
2023-02-09T02:42:54.415Z,11.32
2023-02-09T02:45:32.849Z,11.43
2023-02-09T02:48:16.517Z,12.50
2023-02-09T02:51:02.098Z,10.68
2023-02-09T02:53:31.319Z,11.43
2023-02-09T02:56:04.440Z,10.52
2023-02-09T02:58:32.573Z,11.93
2023-02-09T03:01:02.760Z,9.95
2023-02-09T03:03:33.073Z,13.15
2023-02-09T03:06:02.858Z,12.48
2023-02-09T03:08:29.340Z,9.52
2023-02-09T03:10:56.193Z,8.70
2023-02-09T03:13:55.498Z,11.85
2023-02-09T03:16:46.312Z,12.15
2023-02-09T03:19:31.299Z,11.68
2023-02-09T03:22:20.362Z,12.50
2023-02-09T03:25:00.338Z,12.73
2023-02-09T03:27:41.166Z,12.48
2023-02-09T03:30:11.515Z,8.13
2023-02-09T03:32:40.875Z,11.30
2023-02-09T03:35:10.943Z,14.23
2023-02-09T03:37:37.400Z,12.75
2023-02-09T03:40:04.123Z,12.13
2023-02-09T03:42:30.556Z,10.73
2023-02-09T03:44:57.041Z,10.75
2023-02-09T03:47:23.502Z,11.45
2023-02-09T03:49:49.951Z,12.45
2023-02-09T03:52:17.152Z,14.63
2023-02-09T03:54:43.754Z,13.80
2023-02-09T03:57:10.685Z,10.38
2023-02-09T03:59:37.715Z,12.25
2023-02-09T04:02:06.775Z,11.45
2023-02-09T04:04:33.246Z,11.85
2023-02-09T04:06:59.917Z,9.38
2023-02-09T04:09:27.855Z,17.20
2023-02-09T04:11:54.689Z,11.55
2023-02-09T04:14:21.127Z,12.57
2023-02-09T04:16:47.856Z,14.88
2023-02-09T04:19:14.409Z,10.73
2023-02-09T04:21:40.845Z,16.13
2023-02-09T04:24:08.290Z,15.85
2023-02-09T04:26:35.390Z,13.40
2023-02-09T04:29:01.831Z,10.88
2023-02-09T04:31:28.392Z,30.67
2023-02-09T04:33:55.896Z,23.40
2023-02-09T04:36:23.407Z,61.80
2023-02-09T04:38:50.342Z,29.63
2023-02-09T04:41:17.146Z,18.55
2023-02-09T04:43:43.625Z,16.80
2023-02-09T04:46:14.808Z,17.90
2023-02-09T04:48:41.826Z,13.57
2023-02-09T04:51:08.612Z,9.63
2023-02-09T04:53:35.147Z,22.20
2023-02-09T04:56:01.822Z,54.80
2023-02-09T04:58:46.900Z,27.55
2023-02-09T05:01:18.737Z,12.38
2023-02-09T05:03:45.258Z,16.27
2023-02-09T05:06:11.836Z,11.00
2023-02-09T05:08:38.246Z,46.53
2023-02-09T05:11:04.783Z,29.05
2023-02-09T05:13:31.234Z,20.70
2023-02-09T05:15:57.786Z,15.38
2023-02-09T05:18:26.060Z,45.30
2023-02-09T05:20:52.627Z,38.70
2023-02-09T05:23:19.223Z,14.27
2023-02-09T05:25:46.140Z,18.92
2023-02-09T05:28:12.758Z,20.17
2023-02-09T05:30:39.319Z,27.48
2023-02-09T05:33:05.832Z,25.83
2023-02-09T05:35:32.264Z,22.42
2023-02-09T05:37:58.676Z,21.05
2023-02-09T05:40:25.268Z,25.85
2023-02-09T05:42:51.749Z,26.85
2023-02-09T05:45:18.308Z,20.63
2023-02-09T05:47:45.513Z,20.58
2023-02-09T05:50:11.918Z,18.60
2023-02-09T05:52:38.331Z,15.25
2023-02-09T05:55:04.988Z,20.33
2023-02-09T05:57:31.405Z,20.45
2023-02-09T05:59:57.778Z,17.98
2023-02-09T06:02:24.251Z,12.15
2023-02-09T06:04:50.680Z,18.08
2023-02-09T06:10:13.423Z,13.02
2023-02-09T06:12:41.336Z,12.77
2023-02-09T06:15:09.791Z,9.88
2023-02-09T06:17:36.709Z,24.60
2023-02-09T06:20:03.834Z,26.08
2023-02-09T06:22:33.456Z,16.67
2023-02-09T06:25:00.726Z,16.35
2023-02-09T06:27:30.868Z,19.25
2023-02-09T06:29:57.322Z,17.45
2023-02-09T06:32:24.032Z,27.83
2023-02-09T06:34:57.919Z,18.35
2023-02-09T06:37:27.048Z,30.63
2023-02-09T06:40:01.528Z,25.50
2023-02-09T06:42:43.757Z,40.35
2023-02-09T06:45:18.148Z,44.13
2023-02-09T06:47:46.023Z,34.75
2023-02-09T06:50:16.917Z,42.63
2023-02-09T06:52:43.779Z,40.78
2023-02-09T06:55:10.810Z,23.80
2023-02-09T06:57:50.156Z,23.55
2023-02-09T07:00:17.504Z,28.52
2023-02-09T07:02:49.715Z,19.20
2023-02-09T07:05:18.100Z,29.52
2023-02-09T07:07:45.972Z,28.55
2023-02-09T07:10:15.394Z,29.13
2023-02-09T07:12:49.363Z,18.65
2023-02-09T07:15:16.693Z,22.55
2023-02-09T07:17:43.444Z,18.63
2023-02-09T07:20:10.636Z,21.25
2023-02-09T07:22:37.117Z,22.70
2023-02-09T07:25:03.834Z,17.17
2023-02-09T07:27:32.711Z,17.33
2023-02-09T07:30:00.899Z,20.13
2023-02-09T07:32:27.826Z,24.48
2023-02-09T07:34:55.848Z,25.15
2023-02-09T07:37:25.801Z,16.38
2023-02-09T07:39:54.024Z,22.35
2023-02-09T07:42:23.077Z,26.63
2023-02-09T07:44:55.377Z,17.00
2023-02-09T07:47:21.978Z,32.50
2023-02-09T07:49:51.783Z,15.38
2023-02-09T07:52:18.720Z,10.93
2023-02-09T07:54:45.960Z,20.38
2023-02-09T07:57:19.069Z,15.27
2023-02-09T08:00:02.028Z,24.23
2023-02-09T08:02:36.904Z,15.95
2023-02-09T08:05:07.980Z,14.95
2023-02-09T08:07:34.485Z,20.75
2023-02-09T08:10:00.934Z,15.73
2023-02-09T08:12:50.499Z,17.42
2023-02-09T08:15:24.401Z,20.85
2023-02-09T08:17:56.726Z,15.15
2023-02-09T08:20:30.277Z,23.95
2023-02-09T08:23:07.723Z,14.50
2023-02-09T08:25:35.811Z,18.65
2023-02-09T08:28:12.505Z,13.13
2023-02-09T08:30:39.127Z,17.70
2023-02-09T08:33:05.552Z,20.38
2023-02-09T08:35:31.991Z,18.20
2023-02-09T08:38:02.857Z,10.30
2023-02-09T08:40:30.825Z,9.80
2023-02-09T08:42:57.796Z,12.00
2023-02-09T08:45:28.462Z,10.73
2023-02-09T08:48:02.220Z,62.83
2023-02-09T08:50:28.686Z,10.48
2023-02-09T08:52:57.835Z,15.25
2023-02-09T08:55:24.490Z,13.02
2023-02-09T08:57:51.621Z,11.20
2023-02-09T09:00:18.788Z,16.73
2023-02-09T09:02:52.707Z,12.73
2023-02-09T09:05:19.184Z,18.13
2023-02-09T09:07:45.731Z,12.32
2023-02-09T09:10:22.244Z,14.23
2023-02-09T09:12:49.212Z,13.02
2023-02-09T09:15:15.608Z,13.73
2023-02-09T09:17:42.043Z,10.23
2023-02-09T09:20:08.980Z,11.52
2023-02-09T09:22:35.799Z,14.13
2023-02-09T09:25:02.730Z,13.75
2023-02-09T09:27:29.440Z,10.30
2023-02-09T09:29:58.946Z,11.68
2023-02-09T09:32:25.787Z,18.92
2023-02-09T09:35:07.806Z,36.75
2023-02-09T09:37:34.260Z,13.70
2023-02-09T09:40:00.725Z,11.13
2023-02-09T09:42:49.049Z,10.10
2023-02-09T09:45:24.960Z,9.40
2023-02-09T09:47:52.606Z,12.40
2023-02-09T09:50:26.327Z,13.30
2023-02-09T09:53:12.147Z,12.70
2023-02-09T09:55:39.334Z,12.73
2023-02-09T09:58:21.134Z,13.40
2023-02-09T10:03:22.113Z,10.13
2023-02-09T10:06:03.170Z,9.13
2023-02-09T10:08:36.571Z,8.55
2023-02-09T10:11:11.836Z,9.23
2023-02-09T10:13:56.274Z,10.95
2023-02-09T10:16:34.521Z,9.88
2023-02-09T10:19:03.797Z,14.70
2023-02-09T10:21:34.822Z,13.13
2023-02-09T10:24:01.260Z,6.95
2023-02-09T10:26:33.253Z,11.40
2023-02-09T10:29:20.895Z,7.78
2023-02-09T10:31:54.844Z,9.77
2023-02-09T10:34:33.235Z,7.40
2023-02-09T10:37:48.203Z,10.00
2023-02-09T10:40:19.066Z,8.02
2023-02-09T10:43:07.153Z,8.98
2023-02-09T10:45:51.415Z,11.95
2023-02-09T10:48:20.621Z,11.15
2023-02-09T10:51:19.461Z,7.93
2023-02-09T10:54:07.257Z,11.07
2023-02-09T10:56:49.550Z,21.42
2023-02-09T10:59:19.032Z,17.38
2023-02-09T11:01:54.433Z,12.60
2023-02-09T11:04:23.799Z,10.43
2023-02-09T11:06:58.015Z,10.73
2023-02-09T11:09:28.825Z,8.77
2023-02-09T11:11:55.885Z,8.90
2023-02-09T11:14:22.966Z,10.55
2023-02-09T11:16:58.122Z,10.13
2023-02-09T11:20:05.193Z,17.23
2023-02-09T11:22:53.142Z,7.03
2023-02-09T11:25:41.044Z,17.20
2023-02-09T11:28:26.505Z,7.80
2023-02-09T11:31:17.737Z,15.80
2023-02-09T11:34:05.997Z,11.88
2023-02-09T11:37:02.323Z,11.02
2023-02-09T11:39:44.374Z,12.63
2023-02-09T11:42:34.440Z,9.13
2023-02-09T11:45:12.561Z,10.70
2023-02-09T11:47:57.970Z,16.30
2023-02-09T11:50:34.019Z,14.93
2023-02-09T11:53:21.334Z,11.98
2023-02-09T11:55:52.167Z,10.32
2023-02-09T11:58:33.771Z,10.77
2023-02-09T12:01:15.995Z,11.05
2023-02-09T12:03:55.036Z,10.35
2023-02-09T12:06:24.028Z,10.98
2023-02-09T12:08:59.423Z,8.75
2023-02-09T12:12:08.000Z,13.73
2023-02-09T12:14:41.505Z,11.90
2023-02-09T12:17:51.366Z,11.85
2023-02-09T12:20:29.230Z,8.95
2023-02-09T12:23:01.035Z,7.68
2023-02-09T12:25:51.496Z,14.15
2023-02-09T12:28:42.687Z,12.00
2023-02-09T12:31:20.535Z,14.73
2023-02-09T12:33:47.184Z,9.73
2023-02-09T12:36:13.600Z,11.90
2023-02-09T12:38:56.358Z,14.65
2023-02-09T12:41:23.356Z,11.75
2023-02-09T12:43:50.769Z,16.02
2023-02-09T12:46:17.293Z,11.00
2023-02-09T12:48:50.993Z,13.32
2023-02-09T12:51:39.326Z,12.82
2023-02-09T12:54:43.142Z,10.45
2023-02-09T12:57:15.829Z,11.25
2023-02-09T13:00:00.636Z,13.38
2023-02-09T13:02:36.080Z,12.50
2023-02-09T13:05:17.265Z,12.65
2023-02-09T13:08:11.336Z,16.40
2023-02-09T13:10:41.104Z,11.77
2023-02-09T13:13:18.672Z,13.68
2023-02-09T13:15:52.040Z,16.92
2023-02-09T13:18:38.549Z,12.48
2023-02-09T13:21:39.604Z,10.07
2023-02-09T13:24:19.036Z,13.10
2023-02-09T13:27:19.229Z,11.32
2023-02-09T13:29:53.589Z,12.10
2023-02-09T13:32:38.596Z,14.40
2023-02-09T13:35:18.442Z,11.82
2023-02-09T13:37:52.441Z,10.57
2023-02-09T13:40:23.528Z,13.93
2023-02-09T13:42:56.412Z,11.20
2023-02-09T13:45:26.664Z,16.50
2023-02-09T13:47:54.734Z,9.80
2023-02-09T13:50:23.922Z,12.95
2023-02-09T13:52:51.287Z,10.13
2023-02-09T13:55:26.217Z,15.65
2023-02-09T13:58:07.220Z,15.15
2023-02-09T14:00:39.431Z,10.35
2023-02-09T14:03:12.418Z,10.50
2023-02-09T14:05:48.882Z,13.45
2023-02-09T14:08:18.205Z,9.75
2023-02-09T14:10:54.045Z,12.27
2023-02-09T14:13:39.239Z,11.60
2023-02-09T14:16:07.262Z,35.40
2023-02-09T14:18:57.940Z,11.82
2023-02-09T14:21:44.797Z,11.88
2023-02-09T14:24:22.621Z,13.45
2023-02-09T14:26:59.387Z,12.57
2023-02-09T14:29:31.333Z,13.20
2023-02-09T14:32:36.555Z,13.15
2023-02-09T14:35:22.172Z,11.50
2023-02-09T14:37:50.096Z,19.85
2023-02-09T14:40:26.834Z,11.98
2023-02-09T14:43:11.674Z,13.85
2023-02-09T14:45:40.355Z,15.15
2023-02-09T14:48:16.744Z,11.77
2023-02-09T14:50:43.911Z,13.43
2023-02-09T14:53:13.687Z,13.10
2023-02-09T14:55:40.815Z,11.93
2023-02-09T14:58:21.508Z,10.82
2023-02-09T15:00:48.693Z,14.40
2023-02-09T15:03:15.692Z,16.73
2023-02-09T15:05:42.869Z,27.05
2023-02-09T15:08:15.943Z,19.90
2023-02-09T15:10:48.743Z,28.67
2023-02-09T15:13:16.190Z,14.70
2023-02-09T15:15:43.587Z,14.25
2023-02-09T15:18:19.051Z,15.40
2023-02-09T15:20:45.945Z,12.50
2023-02-09T15:23:12.896Z,12.00
2023-02-09T15:25:40.753Z,15.40
2023-02-09T15:28:14.418Z,14.00
2023-02-09T15:30:40.991Z,18.38
2023-02-09T15:33:12.594Z,14.02
2023-02-09T15:38:06.117Z,14.60
2023-02-09T15:41:01.689Z,14.48
2023-02-09T15:43:48.000Z,16.13
2023-02-09T15:46:34.072Z,16.70
2023-02-09T15:49:01.577Z,11.02
2023-02-09T15:51:34.257Z,14.63
2023-02-09T15:54:05.398Z,13.30
2023-02-09T15:56:31.833Z,19.67
2023-02-09T15:59:03.520Z,14.32
2023-02-09T16:01:34.145Z,17.27
2023-02-09T16:04:14.469Z,19.27
2023-02-09T16:06:48.742Z,21.48
2023-02-09T16:09:19.966Z,17.48
2023-02-09T16:11:48.517Z,13.48
2023-02-09T16:14:17.123Z,23.33
2023-02-09T16:16:45.720Z,16.77
2023-02-09T16:19:13.480Z,20.67
2023-02-09T16:21:43.412Z,16.80
2023-02-09T16:24:21.334Z,20.77
2023-02-09T16:26:48.095Z,18.15
2023-02-09T16:29:15.358Z,15.50
2023-02-09T16:31:42.004Z,15.82
2023-02-09T16:34:09.395Z,17.27
2023-02-09T16:36:35.913Z,14.52
2023-02-09T16:39:03.492Z,19.73
2023-02-09T16:41:49.660Z,18.27
2023-02-09T16:44:24.633Z,17.15
2023-02-09T16:46:53.558Z,18.05
2023-02-09T16:49:34.754Z,24.08
2023-02-09T16:52:06.073Z,17.98
2023-02-09T16:54:40.641Z,19.52
2023-02-09T16:57:09.441Z,25.65
2023-02-09T16:59:35.905Z,19.30
2023-02-09T17:02:03.687Z,16.92
2023-02-09T17:04:30.217Z,14.98
2023-02-09T17:06:56.717Z,17.63
2023-02-09T17:09:23.102Z,17.15
2023-02-09T17:11:49.567Z,19.23
2023-02-09T17:14:15.962Z,15.82
2023-02-09T17:16:45.055Z,22.00
2023-02-09T17:19:15.314Z,17.85
2023-02-09T17:21:42.288Z,15.80
2023-02-09T17:24:15.297Z,24.25
2023-02-09T17:26:42.058Z,29.50
2023-02-09T17:29:09.026Z,33.25
2023-02-09T17:31:51.956Z,61.55
2023-02-09T17:34:20.538Z,55.95
2023-02-09T17:36:47.084Z,50.83
2023-02-09T17:39:13.947Z,38.28
2023-02-09T17:41:45.207Z,38.38
2023-02-09T17:44:22.250Z,29.33
2023-02-09T17:46:55.702Z,16.45
2023-02-09T17:49:22.199Z,19.70
2023-02-09T17:51:49.275Z,15.90
2023-02-09T17:54:18.758Z,15.40
2023-02-09T17:56:45.666Z,17.38
2023-02-09T17:59:13.376Z,18.73
2023-02-09T18:01:42.517Z,20.83
2023-02-09T18:04:16.462Z,18.15
2023-02-09T18:06:42.905Z,18.23
2023-02-09T18:09:12.429Z,20.80
2023-02-09T18:12:02.049Z,23.88
2023-02-09T18:14:31.107Z,20.23
2023-02-09T18:16:57.600Z,21.40
2023-02-09T18:19:24.681Z,19.63
2023-02-09T18:21:53.668Z,14.70
2023-02-09T18:24:22.294Z,16.05
2023-02-09T18:26:50.983Z,17.40
2023-02-09T18:29:18.420Z,15.07
2023-02-09T18:31:46.583Z,18.67
2023-02-09T18:34:13.880Z,20.08
2023-02-09T18:36:40.287Z,16.70
2023-02-09T18:39:06.775Z,19.92
2023-02-09T18:41:33.366Z,22.13
2023-02-09T18:43:59.754Z,20.92
2023-02-09T18:46:27.022Z,17.65
2023-02-09T18:48:54.676Z,23.50
2023-02-09T18:51:21.811Z,26.63
2023-02-09T18:53:50.141Z,21.35
2023-02-09T18:56:19.217Z,22.50
2023-02-09T18:58:46.191Z,22.42
2023-02-09T19:01:13.607Z,17.45
2023-02-09T19:03:40.159Z,22.15
2023-02-09T19:06:10.814Z,22.02
2023-02-09T19:08:38.568Z,28.95
2023-02-09T19:11:06.151Z,42.28
2023-02-09T19:13:34.028Z,38.00
2023-02-09T19:16:01.128Z,32.45
2023-02-09T19:18:28.194Z,35.45
2023-02-09T19:20:57.251Z,77.40
2023-02-09T19:23:24.718Z,77.60
2023-02-09T19:26:01.668Z,105.43
2023-02-09T19:28:28.186Z,103.63
2023-02-09T19:30:54.724Z,100.28
2023-02-09T19:33:23.321Z,111.95
2023-02-09T19:35:57.757Z,98.32
2023-02-09T19:38:25.629Z,81.82
2023-02-09T19:41:05.116Z,117.68
2023-02-09T19:43:36.051Z,73.97
2023-02-09T19:46:02.549Z,55.88
2023-02-09T19:48:28.961Z,55.08
2023-02-09T19:50:56.970Z,144.82
2023-02-09T19:53:24.020Z,160.48
2023-02-09T19:55:52.102Z,218.77
2023-02-09T19:58:22.296Z,198.13
2023-02-09T20:00:50.265Z,66.20
2023-02-09T20:03:17.451Z,72.00
2023-02-09T20:05:44.803Z,52.40
2023-02-09T20:08:15.765Z,46.95
2023-02-09T20:10:43.920Z,44.47
2023-02-09T20:13:14.122Z,38.28
2023-02-09T20:15:42.262Z,32.63
2023-02-09T20:18:09.299Z,29.30
2023-02-09T20:20:35.785Z,25.67
2023-02-09T20:23:02.183Z,34.33
2023-02-09T20:25:28.632Z,38.65
2023-02-09T20:27:55.697Z,28.38
2023-02-09T20:30:22.157Z,39.92
2023-02-09T20:32:48.641Z,63.50
2023-02-09T20:35:15.193Z,52.22
2023-02-09T20:37:41.650Z,75.53
2023-02-09T20:40:11.302Z,84.43
2023-02-09T20:42:57.127Z,59.42
2023-02-09T20:45:42.522Z,64.78
2023-02-09T20:48:08.947Z,36.00
2023-02-09T20:50:35.438Z,35.05
2023-02-09T20:53:03.277Z,32.03
2023-02-09T20:55:30.409Z,25.67
2023-02-09T20:57:56.874Z,24.80
2023-02-09T21:00:23.411Z,25.77
2023-02-09T21:02:49.905Z,20.67
2023-02-09T21:05:16.679Z,23.98
2023-02-09T21:07:43.266Z,21.10
2023-02-09T21:10:12.763Z,29.85
2023-02-09T21:12:39.294Z,23.23
2023-02-09T21:15:06.050Z,22.65
2023-02-09T21:17:32.565Z,23.70
2023-02-09T21:19:58.986Z,22.52
2023-02-09T21:22:25.407Z,69.00
2023-02-09T21:24:51.860Z,46.33
2023-02-09T21:27:18.377Z,27.98
2023-02-09T21:29:44.865Z,29.63
2023-02-09T21:32:11.301Z,28.92
2023-02-09T21:34:37.744Z,50.70
2023-02-09T21:37:07.724Z,33.42
2023-02-09T21:39:34.196Z,36.10
2023-02-09T21:42:18.984Z,32.97
2023-02-09T21:44:45.386Z,30.85
2023-02-09T21:47:12.084Z,31.88
2023-02-09T21:49:38.584Z,28.95
2023-02-09T21:52:05.523Z,31.88
2023-02-09T21:54:33.926Z,33.72
2023-02-09T21:57:01.403Z,27.65
2023-02-09T21:59:28.621Z,30.90
2023-02-09T22:01:55.265Z,31.70
2023-02-09T22:04:21.801Z,35.25
2023-02-09T22:06:48.481Z,31.80
2023-02-09T22:09:14.977Z,29.55
2023-02-09T22:11:41.608Z,37.25
2023-02-09T22:14:08.031Z,47.17
2023-02-09T22:16:34.468Z,35.92
2023-02-09T22:19:00.917Z,47.22
2023-02-09T22:21:27.478Z,38.65
2023-02-09T22:23:54.377Z,40.35
2023-02-09T22:26:21.214Z,35.30
2023-02-09T22:28:47.795Z,39.38
2023-02-09T22:31:19.117Z,42.90
2023-02-09T22:33:45.779Z,39.88
2023-02-09T22:36:14.991Z,47.55
2023-02-09T22:38:42.140Z,42.78
2023-02-09T22:41:21.271Z,42.55
2023-02-09T22:43:50.674Z,37.85
2023-02-09T22:46:17.419Z,37.40
2023-02-09T22:48:44.377Z,30.98
2023-02-09T22:51:17.129Z,27.73
2023-02-09T22:53:44.798Z,28.60
2023-02-09T22:56:12.380Z,27.77
2023-02-09T22:58:38.899Z,21.63
2023-02-09T23:01:06.045Z,27.00
2023-02-09T23:03:33.814Z,25.00
2023-02-09T23:06:01.799Z,23.85
2023-02-09T23:08:28.758Z,26.42
2023-02-09T23:11:01.427Z,27.83
2023-02-09T23:13:27.916Z,29.08
2023-02-09T23:15:54.394Z,26.08
2023-02-09T23:18:20.891Z,22.95
2023-02-09T23:20:48.954Z,29.48
2023-02-09T23:23:16.275Z,23.77
2023-02-09T23:25:42.782Z,22.83
2023-02-09T23:28:09.250Z,28.35
2023-02-09T23:30:35.718Z,24.95
2023-02-09T23:33:02.282Z,22.17
2023-02-09T23:35:28.717Z,34.15
2023-02-09T23:37:55.149Z,28.08
2023-02-09T23:40:21.569Z,29.73
2023-02-09T23:42:47.982Z,24.08
2023-02-09T23:45:14.605Z,22.80
2023-02-09T23:47:41.019Z,27.90
2023-02-09T23:50:07.516Z,28.45
2023-02-09T23:52:33.967Z,29.88
2023-02-09T23:55:00.485Z,37.00
2023-02-09T23:57:26.926Z,37.47
2023-02-09T23:59:53.352Z,52.58
